Church Hill, Maryland
Current Conditions -  °F | °C
As of 2:55 PM on Friday 19 Dec 2014 (Local Time) from KAPG Reporting Station
Scattered Clouds Scattered Clouds  
Wind Chill: 34°   Ceiling: Unl
Heat Index: 41°   Visibility: 7mi
Dew Point: 25°   Wind: 12mph
Humidity: 53%   Direction: 300°WNW
Pressure: 30.11"   Gusts: NA
Location:  39.14°N, 75.99°W
Report Text: KAPG 191955Z 30010KT 7SM SCT040 05/M04 A3011
Loading
Personal Weather Stations






























Interactive Weather Map New forecast layout! Learn more

10-Day Weather Forecast

Advertisements
Track Severe Weather on mobile